sensor_id;sensor_type;location;lat;lon;timestamp;P1;durP1;ratioP1;P2;durP2;ratioP2
23539;SDS011;11947;50.810;4.394;2023-03-03T00:02:15;58.17;;;25.30;;
23539;SDS011;11947;50.810;4.394;2023-03-03T00:04:41;60.10;;;24.80;;
23539;SDS011;11947;50.810;4.394;2023-03-03T00:07:06;64.40;;;24.70;;
23539;SDS011;11947;50.810;4.394;2023-03-03T00:09:32;61.78;;;24.52;;
23539;SDS011;11947;50.810;4.394;2023-03-03T00:11:58;63.00;;;25.35;;
23539;SDS011;11947;50.810;4.394;2023-03-03T00:14:30;60.10;;;25.20;;
23539;SDS011;11947;50.810;4.394;2023-03-03T00:17:00;61.03;;;24.83;;
23539;SDS011;11947;50.810;4.394;2023-03-03T00:19:31;61.30;;;24.58;;
23539;SDS011;11947;50.810;4.394;2023-03-03T00:22:06;64.55;;;25.98;;
23539;SDS011;11947;50.810;4.394;2023-03-03T00:24:46;60.05;;;24.45;;
23539;SDS011;11947;50.810;4.394;2023-03-03T00:27:21;61.70;;;24.35;;
23539;SDS011;11947;50.810;4.394;2023-03-03T00:29:59;66.10;;;26.25;;
23539;SDS011;11947;50.810;4.394;2023-03-03T00:37:58;63.38;;;23.63;;
23539;SDS011;11947;50.810;4.394;2023-03-03T00:40:26;60.13;;;24.38;;
23539;SDS011;11947;50.810;4.394;2023-03-03T00:42:59;60.10;;;23.88;;
23539;SDS011;11947;50.810;4.394;2023-03-03T00:45:45;56.78;;;23.35;;
23539;SDS011;11947;50.810;4.394;2023-03-03T00:50:42;57.67;;;23.67;;
23539;SDS011;11947;50.810;4.394;2023-03-03T00:53:15;68.30;;;27.75;;
23539;SDS011;11947;50.810;4.394;2023-03-03T00:55:42;60.38;;;24.50;;
23539;SDS011;11947;50.810;4.394;2023-03-03T00:58:09;60.03;;;24.92;;
23539;SDS011;11947;50.810;4.394;2023-03-03T01:00:35;56.38;;;23.50;;
23539;SDS011;11947;50.810;4.394;2023-03-03T01:03:05;60.03;;;25.13;;
23539;SDS011;11947;50.810;4.394;2023-03-03T01:05:33;65.55;;;24.23;;
23539;SDS011;11947;50.810;4.394;2023-03-03T01:07:59;64.75;;;24.77;;
23539;SDS011;11947;50.810;4.394;2023-03-03T01:10:25;62.13;;;26.15;;
23539;SDS011;11947;50.810;4.394;2023-03-03T01:12:52;72.07;;;27.55;;
23539;SDS011;11947;50.810;4.394;2023-03-03T01:15:18;60.20;;;23.88;;
23539;SDS011;11947;50.810;4.394;2023-03-03T01:17:45;62.78;;;24.63;;
23539;SDS011;11947;50.810;4.394;2023-03-03T01:20:11;62.45;;;24.13;;
23539;SDS011;11947;50.810;4.394;2023-03-03T01:22:38;63.20;;;24.77;;
23539;SDS011;11947;50.810;4.394;2023-03-03T01:25:04;67.30;;;24.63;;
23539;SDS011;11947;50.810;4.394;2023-03-03T01:27:30;65.28;;;24.88;;
23539;SDS011;11947;50.810;4.394;2023-03-03T01:29:56;61.97;;;24.13;;
23539;SDS011;11947;50.810;4.394;2023-03-03T01:32:23;59.40;;;23.67;;
23539;SDS011;11947;50.810;4.394;2023-03-03T01:34:49;70.05;;;26.13;;
23539;SDS011;11947;50.810;4.394;2023-03-03T01:37:15;60.75;;;24.90;;
23539;SDS011;11947;50.810;4.394;2023-03-03T01:39:40;61.28;;;24.45;;
23539;SDS011;11947;50.810;4.394;2023-03-03T01:42:06;63.78;;;25.20;;
23539;SDS011;11947;50.810;4.394;2023-03-03T01:44:32;60.92;;;25.75;;
23539;SDS011;11947;50.810;4.394;2023-03-03T01:47:16;62.28;;;25.58;;
23539;SDS011;11947;50.810;4.394;2023-03-03T01:49:55;72.82;;;25.80;;
23539;SDS011;11947;50.810;4.394;2023-03-03T01:52:28;66.10;;;25.45;;
23539;SDS011;11947;50.810;4.394;2023-03-03T01:55:18;67.90;;;26.75;;
23539;SDS011;11947;50.810;4.394;2023-03-03T01:57:49;68.47;;;26.25;;
23539;SDS011;11947;50.810;4.394;2023-03-03T02:00:22;65.15;;;25.50;;
23539;SDS011;11947;50.810;4.394;2023-03-03T02:02:48;71.63;;;27.23;;
23539;SDS011;11947;50.810;4.394;2023-03-03T02:05:14;69.47;;;27.17;;
23539;SDS011;11947;50.810;4.394;2023-03-03T02:07:41;68.35;;;28.02;;
23539;SDS011;11947;50.810;4.394;2023-03-03T02:10:08;72.00;;;27.85;;
23539;SDS011;11947;50.810;4.394;2023-03-03T02:12:38;69.80;;;27.52;;
23539;SDS011;11947;50.810;4.394;2023-03-03T02:15:20;69.47;;;26.92;;
23539;SDS011;11947;50.810;4.394;2023-03-03T02:17:50;147.20;;;30.83;;
23539;SDS011;11947;50.810;4.394;2023-03-03T02:23:29;69.28;;;27.65;;
23539;SDS011;11947;50.810;4.394;2023-03-03T02:26:14;76.75;;;28.30;;
23539;SDS011;11947;50.810;4.394;2023-03-03T02:28:43;83.20;;;30.17;;
23539;SDS011;11947;50.810;4.394;2023-03-03T02:31:13;75.32;;;29.40;;
23539;SDS011;11947;50.810;4.394;2023-03-03T02:33:41;80.33;;;30.00;;
23539;SDS011;11947;50.810;4.394;2023-03-03T02:36:12;80.25;;;29.75;;
23539;SDS011;11947;50.810;4.394;2023-03-03T02:38:47;94.43;;;31.30;;
23539;SDS011;11947;50.810;4.394;2023-03-03T02:41:20;77.20;;;29.73;;
23539;SDS011;11947;50.810;4.394;2023-03-03T02:44:14;79.15;;;30.83;;
23539;SDS011;11947;50.810;4.394;2023-03-03T02:46:44;89.65;;;32.75;;
23539;SDS011;11947;50.810;4.394;2023-03-03T02:49:13;119.25;;;33.95;;
23539;SDS011;11947;50.810;4.394;2023-03-03T02:51:40;86.32;;;31.63;;
23539;SDS011;11947;50.810;4.394;2023-03-03T02:54:06;96.07;;;35.08;;
23539;SDS011;11947;50.810;4.394;2023-03-03T02:56:33;102.53;;;34.20;;
23539;SDS011;11947;50.810;4.394;2023-03-03T02:58:59;95.35;;;33.38;;
23539;SDS011;11947;50.810;4.394;2023-03-03T03:01:25;91.53;;;33.25;;
23539;SDS011;11947;50.810;4.394;2023-03-03T03:03:51;95.72;;;34.25;;
23539;SDS011;11947;50.810;4.394;2023-03-03T03:06:17;223.15;;;39.10;;
23539;SDS011;11947;50.810;4.394;2023-03-03T03:08:43;94.28;;;34.13;;
23539;SDS011;11947;50.810;4.394;2023-03-03T03:11:09;96.88;;;34.03;;
23539;SDS011;11947;50.810;4.394;2023-03-03T03:13:34;90.15;;;33.60;;
23539;SDS011;11947;50.810;4.394;2023-03-03T03:16:00;102.70;;;35.67;;
23539;SDS011;11947;50.810;4.394;2023-03-03T03:18:26;95.03;;;34.85;;
23539;SDS011;11947;50.810;4.394;2023-03-03T03:20:52;96.50;;;33.78;;
23539;SDS011;11947;50.810;4.394;2023-03-03T03:23:18;93.68;;;34.17;;
23539;SDS011;11947;50.810;4.394;2023-03-03T03:25:46;97.38;;;33.13;;
23539;SDS011;11947;50.810;4.394;2023-03-03T03:28:13;104.63;;;32.90;;
23539;SDS011;11947;50.810;4.394;2023-03-03T03:30:40;90.10;;;32.70;;
23539;SDS011;11947;50.810;4.394;2023-03-03T03:33:06;91.78;;;32.30;;
23539;SDS011;11947;50.810;4.394;2023-03-03T03:35:32;87.60;;;33.22;;
23539;SDS011;11947;50.810;4.394;2023-03-03T03:37:59;96.88;;;34.05;;
23539;SDS011;11947;50.810;4.394;2023-03-03T03:40:25;96.57;;;34.80;;
23539;SDS011;11947;50.810;4.394;2023-03-03T03:42:51;90.38;;;33.35;;
23539;SDS011;11947;50.810;4.394;2023-03-03T03:45:17;91.00;;;35.50;;
23539;SDS011;11947;50.810;4.394;2023-03-03T03:47:43;116.22;;;35.22;;
23539;SDS011;11947;50.810;4.394;2023-03-03T03:50:09;93.95;;;33.20;;
23539;SDS011;11947;50.810;4.394;2023-03-03T03:52:35;91.07;;;34.35;;
23539;SDS011;11947;50.810;4.394;2023-03-03T03:55:01;86.97;;;34.08;;
23539;SDS011;11947;50.810;4.394;2023-03-03T03:57:28;91.50;;;33.67;;
23539;SDS011;11947;50.810;4.394;2023-03-03T03:59:53;96.80;;;33.92;;
23539;SDS011;11947;50.810;4.394;2023-03-03T04:02:19;90.85;;;32.92;;
23539;SDS011;11947;50.810;4.394;2023-03-03T04:04:44;84.72;;;32.08;;
23539;SDS011;11947;50.810;4.394;2023-03-03T04:07:10;87.57;;;30.85;;
23539;SDS011;11947;50.810;4.394;2023-03-03T04:09:36;92.38;;;32.08;;
23539;SDS011;11947;50.810;4.394;2023-03-03T04:12:01;89.72;;;31.73;;
23539;SDS011;11947;50.810;4.394;2023-03-03T04:14:27;93.00;;;32.80;;
23539;SDS011;11947;50.810;4.394;2023-03-03T04:16:53;91.40;;;33.03;;
23539;SDS011;11947;50.810;4.394;2023-03-03T04:19:19;119.45;;;34.60;;
23539;SDS011;11947;50.810;4.394;2023-03-03T04:21:44;95.30;;;33.50;;
23539;SDS011;11947;50.810;4.394;2023-03-03T04:24:10;99.47;;;33.95;;
23539;SDS011;11947;50.810;4.394;2023-03-03T04:26:35;102.75;;;35.35;;
23539;SDS011;11947;50.810;4.394;2023-03-03T04:29:01;101.85;;;34.47;;
23539;SDS011;11947;50.810;4.394;2023-03-03T04:31:27;100.43;;;34.85;;
23539;SDS011;11947;50.810;4.394;2023-03-03T04:33:52;102.55;;;35.88;;
23539;SDS011;11947;50.810;4.394;2023-03-03T04:36:19;109.78;;;36.60;;
23539;SDS011;11947;50.810;4.394;2023-03-03T04:38:45;103.57;;;34.60;;
23539;SDS011;11947;50.810;4.394;2023-03-03T04:41:11;90.95;;;33.30;;
23539;SDS011;11947;50.810;4.394;2023-03-03T04:43:36;91.15;;;32.90;;
23539;SDS011;11947;50.810;4.394;2023-03-03T04:46:02;93.50;;;33.35;;
23539;SDS011;11947;50.810;4.394;2023-03-03T04:48:28;100.45;;;33.10;;
23539;SDS011;11947;50.810;4.394;2023-03-03T04:50:53;94.60;;;33.15;;
23539;SDS011;11947;50.810;4.394;2023-03-03T04:53:19;92.63;;;32.15;;
23539;SDS011;11947;50.810;4.394;2023-03-03T04:55:45;90.65;;;31.60;;
23539;SDS011;11947;50.810;4.394;2023-03-03T04:58:11;86.22;;;31.92;;
23539;SDS011;11947;50.810;4.394;2023-03-03T05:00:36;85.63;;;31.48;;
23539;SDS011;11947;50.810;4.394;2023-03-03T05:03:03;92.30;;;32.30;;
23539;SDS011;11947;50.810;4.394;2023-03-03T05:05:29;94.68;;;33.25;;
23539;SDS011;11947;50.810;4.394;2023-03-03T05:07:54;98.63;;;30.65;;
23539;SDS011;11947;50.810;4.394;2023-03-03T05:10:20;93.80;;;30.85;;
23539;SDS011;11947;50.810;4.394;2023-03-03T05:12:45;81.82;;;30.10;;
23539;SDS011;11947;50.810;4.394;2023-03-03T05:15:11;91.30;;;30.65;;
23539;SDS011;11947;50.810;4.394;2023-03-03T05:17:37;87.30;;;30.48;;
23539;SDS011;11947;50.810;4.394;2023-03-03T05:20:03;95.88;;;32.60;;
23539;SDS011;11947;50.810;4.394;2023-03-03T05:22:32;91.38;;;30.88;;
23539;SDS011;11947;50.810;4.394;2023-03-03T05:24:58;97.00;;;31.67;;
23539;SDS011;11947;50.810;4.394;2023-03-03T05:27:23;119.50;;;32.00;;
23539;SDS011;11947;50.810;4.394;2023-03-03T05:29:49;88.05;;;31.48;;
23539;SDS011;11947;50.810;4.394;2023-03-03T05:32:15;82.72;;;29.15;;
23539;SDS011;11947;50.810;4.394;2023-03-03T05:34:40;83.60;;;28.65;;
23539;SDS011;11947;50.810;4.394;2023-03-03T05:37:06;421.83;;;40.78;;
23539;SDS011;11947;50.810;4.394;2023-03-03T05:39:32;82.75;;;29.20;;
23539;SDS011;11947;50.810;4.394;2023-03-03T05:41:58;83.63;;;29.75;;
23539;SDS011;11947;50.810;4.394;2023-03-03T05:44:24;80.15;;;28.45;;
23539;SDS011;11947;50.810;4.394;2023-03-03T05:46:50;79.15;;;29.88;;
23539;SDS011;11947;50.810;4.394;2023-03-03T05:49:16;90.13;;;30.90;;
23539;SDS011;11947;50.810;4.394;2023-03-03T05:51:41;83.88;;;29.98;;
23539;SDS011;11947;50.810;4.394;2023-03-03T05:54:07;79.43;;;28.90;;
23539;SDS011;11947;50.810;4.394;2023-03-03T05:56:33;172.25;;;33.10;;
23539;SDS011;11947;50.810;4.394;2023-03-03T05:58:59;87.40;;;29.27;;
23539;SDS011;11947;50.810;4.394;2023-03-03T06:01:24;86.75;;;30.77;;
23539;SDS011;11947;50.810;4.394;2023-03-03T06:03:51;77.47;;;28.45;;
23539;SDS011;11947;50.810;4.394;2023-03-03T06:06:16;242.13;;;35.60;;
23539;SDS011;11947;50.810;4.394;2023-03-03T06:08:43;86.80;;;29.35;;
23539;SDS011;11947;50.810;4.394;2023-03-03T06:11:09;81.43;;;28.38;;
23539;SDS011;11947;50.810;4.394;2023-03-03T06:13:35;587.80;;;50.90;;
23539;SDS011;11947;50.810;4.394;2023-03-03T06:16:01;775.03;;;60.17;;
23539;SDS011;11947;50.810;4.394;2023-03-03T06:18:26;81.70;;;28.45;;
23539;SDS011;11947;50.810;4.394;2023-03-03T06:20:52;80.45;;;28.40;;
23539;SDS011;11947;50.810;4.394;2023-03-03T06:23:19;77.30;;;28.23;;
23539;SDS011;11947;50.810;4.394;2023-03-03T06:25:45;81.93;;;28.73;;
23539;SDS011;11947;50.810;4.394;2023-03-03T06:28:11;74.40;;;28.08;;
23539;SDS011;11947;50.810;4.394;2023-03-03T06:30:38;80.72;;;27.67;;
23539;SDS011;11947;50.810;4.394;2023-03-03T06:33:04;307.48;;;38.08;;
23539;SDS011;11947;50.810;4.394;2023-03-03T06:35:30;100.57;;;32.42;;
23539;SDS011;11947;50.810;4.394;2023-03-03T06:37:55;186.57;;;31.30;;
23539;SDS011;11947;50.810;4.394;2023-03-03T06:40:21;103.72;;;30.00;;
23539;SDS011;11947;50.810;4.394;2023-03-03T06:42:47;76.35;;;28.00;;
23539;SDS011;11947;50.810;4.394;2023-03-03T06:45:13;86.15;;;29.65;;
23539;SDS011;11947;50.810;4.394;2023-03-03T06:47:39;81.90;;;29.70;;
23539;SDS011;11947;50.810;4.394;2023-03-03T06:50:05;78.18;;;28.25;;
23539;SDS011;11947;50.810;4.394;2023-03-03T06:52:31;77.18;;;27.77;;
23539;SDS011;11947;50.810;4.394;2023-03-03T06:54:57;79.43;;;29.58;;
23539;SDS011;11947;50.810;4.394;2023-03-03T06:57:26;77.35;;;28.20;;
23539;SDS011;11947;50.810;4.394;2023-03-03T06:59:52;72.90;;;27.20;;
23539;SDS011;11947;50.810;4.394;2023-03-03T07:02:21;77.47;;;27.98;;
23539;SDS011;11947;50.810;4.394;2023-03-03T07:04:47;79.13;;;27.75;;
23539;SDS011;11947;50.810;4.394;2023-03-03T07:07:17;79.50;;;28.77;;
23539;SDS011;11947;50.810;4.394;2023-03-03T07:09:45;73.57;;;27.02;;
23539;SDS011;11947;50.810;4.394;2023-03-03T07:12:17;80.97;;;28.98;;
23539;SDS011;11947;50.810;4.394;2023-03-03T07:17:17;74.50;;;26.48;;
23539;SDS011;11947;50.810;4.394;2023-03-03T07:19:43;81.82;;;27.80;;
23539;SDS011;11947;50.810;4.394;2023-03-03T07:22:17;83.05;;;28.90;;
23539;SDS011;11947;50.810;4.394;2023-03-03T07:24:48;79.97;;;28.83;;
23539;SDS011;11947;50.810;4.394;2023-03-03T07:27:18;89.18;;;28.88;;
23539;SDS011;11947;50.810;4.394;2023-03-03T07:29:52;75.88;;;28.02;;
23539;SDS011;11947;50.810;4.394;2023-03-03T07:32:37;72.22;;;27.52;;
23539;SDS011;11947;50.810;4.394;2023-03-03T07:35:51;105.82;;;27.08;;
23539;SDS011;11947;50.810;4.394;2023-03-03T07:38:34;76.57;;;28.02;;
23539;SDS011;11947;50.810;4.394;2023-03-03T07:41:03;72.65;;;26.15;;
23539;SDS011;11947;50.810;4.394;2023-03-03T07:48:49;71.20;;;26.33;;
23539;SDS011;11947;50.810;4.394;2023-03-03T07:51:21;77.07;;;26.17;;
23539;SDS011;11947;50.810;4.394;2023-03-03T07:53:49;71.55;;;25.67;;
23539;SDS011;11947;50.810;4.394;2023-03-03T07:56:30;83.28;;;28.02;;
23539;SDS011;11947;50.810;4.394;2023-03-03T07:58:59;75.07;;;26.85;;
23539;SDS011;11947;50.810;4.394;2023-03-03T08:04:10;76.57;;;25.45;;
23539;SDS011;11947;50.810;4.394;2023-03-03T08:06:43;75.75;;;26.73;;
23539;SDS011;11947;50.810;4.394;2023-03-03T08:11:40;75.85;;;27.27;;
23539;SDS011;11947;50.810;4.394;2023-03-03T08:14:15;75.78;;;25.25;;
23539;SDS011;11947;50.810;4.394;2023-03-03T08:16:53;72.63;;;25.73;;
23539;SDS011;11947;50.810;4.394;2023-03-03T08:19:20;77.68;;;25.17;;
23539;SDS011;11947;50.810;4.394;2023-03-03T08:21:45;75.50;;;27.15;;
23539;SDS011;11947;50.810;4.394;2023-03-03T08:24:11;78.43;;;26.98;;
23539;SDS011;11947;50.810;4.394;2023-03-03T08:26:37;74.57;;;26.75;;
23539;SDS011;11947;50.810;4.394;2023-03-03T08:29:02;73.68;;;26.80;;
23539;SDS011;11947;50.810;4.394;2023-03-03T08:31:28;68.05;;;26.05;;
23539;SDS011;11947;50.810;4.394;2023-03-03T08:33:53;74.22;;;27.92;;
23539;SDS011;11947;50.810;4.394;2023-03-03T08:36:19;73.43;;;26.80;;
23539;SDS011;11947;50.810;4.394;2023-03-03T08:38:45;78.38;;;26.80;;
23539;SDS011;11947;50.810;4.394;2023-03-03T08:41:11;72.80;;;26.17;;
23539;SDS011;11947;50.810;4.394;2023-03-03T08:43:37;74.57;;;26.77;;
23539;SDS011;11947;50.810;4.394;2023-03-03T08:46:03;71.85;;;25.92;;
23539;SDS011;11947;50.810;4.394;2023-03-03T08:48:30;68.22;;;25.25;;
23539;SDS011;11947;50.810;4.394;2023-03-03T08:50:57;76.05;;;24.80;;
23539;SDS011;11947;50.810;4.394;2023-03-03T08:53:23;70.03;;;24.60;;
23539;SDS011;11947;50.810;4.394;2023-03-03T08:55:49;69.60;;;26.20;;
23539;SDS011;11947;50.810;4.394;2023-03-03T08:58:16;68.90;;;24.92;;
23539;SDS011;11947;50.810;4.394;2023-03-03T09:00:43;68.03;;;23.17;;
23539;SDS011;11947;50.810;4.394;2023-03-03T09:03:09;66.78;;;24.55;;
23539;SDS011;11947;50.810;4.394;2023-03-03T09:05:35;73.50;;;25.23;;
23539;SDS011;11947;50.810;4.394;2023-03-03T09:08:02;66.53;;;26.10;;
23539;SDS011;11947;50.810;4.394;2023-03-03T09:10:29;72.30;;;24.77;;
23539;SDS011;11947;50.810;4.394;2023-03-03T09:13:01;59.08;;;22.40;;
23539;SDS011;11947;50.810;4.394;2023-03-03T09:15:33;63.22;;;21.65;;
23539;SDS011;11947;50.810;4.394;2023-03-03T09:18:05;60.20;;;20.63;;
23539;SDS011;11947;50.810;4.394;2023-03-03T09:20:36;59.95;;;20.02;;
23539;SDS011;11947;50.810;4.394;2023-03-03T09:28:35;54.38;;;19.15;;
23539;SDS011;11947;50.810;4.394;2023-03-03T09:31:01;59.15;;;19.33;;
23539;SDS011;11947;50.810;4.394;2023-03-03T09:33:42;56.20;;;20.23;;
23539;SDS011;11947;50.810;4.394;2023-03-03T09:38:53;54.13;;;19.58;;
23539;SDS011;11947;50.810;4.394;2023-03-03T09:58:03;48.75;;;18.65;;
23539;SDS011;11947;50.810;4.394;2023-03-03T10:03:51;51.47;;;18.83;;
23539;SDS011;11947;50.810;4.394;2023-03-03T10:06:27;50.40;;;18.95;;
23539;SDS011;11947;50.810;4.394;2023-03-03T10:09:07;58.40;;;19.52;;
23539;SDS011;11947;50.810;4.394;2023-03-03T10:17:25;56.17;;;18.63;;
23539;SDS011;11947;50.810;4.394;2023-03-03T10:31:22;53.97;;;19.73;;
23539;SDS011;11947;50.810;4.394;2023-03-03T10:36:52;54.00;;;18.25;;
23539;SDS011;11947;50.810;4.394;2023-03-03T10:50:06;58.78;;;19.08;;
23539;SDS011;11947;50.810;4.394;2023-03-03T11:01:48;52.38;;;19.85;;
23539;SDS011;11947;50.810;4.394;2023-03-03T11:07:38;49.00;;;17.63;;
23539;SDS011;11947;50.810;4.394;2023-03-03T11:10:24;51.17;;;18.30;;
23539;SDS011;11947;50.810;4.394;2023-03-03T11:13:09;52.20;;;18.35;;
23539;SDS011;11947;50.810;4.394;2023-03-03T11:26:49;47.83;;;17.60;;
23539;SDS011;11947;50.810;4.394;2023-03-03T11:29:43;47.47;;;17.33;;
23539;SDS011;11947;50.810;4.394;2023-03-03T11:32:35;56.60;;;18.05;;
23539;SDS011;11947;50.810;4.394;2023-03-03T11:35:33;45.67;;;17.25;;
23539;SDS011;11947;50.810;4.394;2023-03-03T11:41:10;58.15;;;18.77;;
23539;SDS011;11947;50.810;4.394;2023-03-03T11:43:44;47.78;;;18.70;;
23539;SDS011;11947;50.810;4.394;2023-03-03T11:46:16;48.60;;;18.00;;
23539;SDS011;11947;50.810;4.394;2023-03-03T11:49:00;52.97;;;18.25;;
23539;SDS011;11947;50.810;4.394;2023-03-03T11:54:08;55.17;;;19.40;;
23539;SDS011;11947;50.810;4.394;2023-03-03T11:56:47;49.20;;;17.48;;
23539;SDS011;11947;50.810;4.394;2023-03-03T12:02:16;53.55;;;19.52;;
23539;SDS011;11947;50.810;4.394;2023-03-03T12:05:16;47.83;;;17.67;;
23539;SDS011;11947;50.810;4.394;2023-03-03T12:08:21;45.88;;;18.00;;
23539;SDS011;11947;50.810;4.394;2023-03-03T12:11:02;49.72;;;17.92;;
23539;SDS011;11947;50.810;4.394;2023-03-03T12:24:17;47.30;;;17.17;;
23539;SDS011;11947;50.810;4.394;2023-03-03T12:29:43;47.95;;;17.63;;
23539;SDS011;11947;50.810;4.394;2023-03-03T12:32:30;44.80;;;18.00;;
23539;SDS011;11947;50.810;4.394;2023-03-03T12:35:17;44.13;;;17.23;;
23539;SDS011;11947;50.810;4.394;2023-03-03T12:37:53;44.45;;;17.65;;
23539;SDS011;11947;50.810;4.394;2023-03-03T12:40:35;47.78;;;18.05;;
23539;SDS011;11947;50.810;4.394;2023-03-03T12:43:18;43.22;;;17.08;;
23539;SDS011;11947;50.810;4.394;2023-03-03T12:45:59;40.42;;;17.02;;
23539;SDS011;11947;50.810;4.394;2023-03-03T12:48:44;45.30;;;17.40;;
23539;SDS011;11947;50.810;4.394;2023-03-03T12:51:25;47.15;;;16.95;;
23539;SDS011;11947;50.810;4.394;2023-03-03T12:54:20;41.35;;;16.80;;
23539;SDS011;11947;50.810;4.394;2023-03-03T12:57:04;39.75;;;16.88;;
23539;SDS011;11947;50.810;4.394;2023-03-03T13:13:58;38.72;;;17.88;;
23539;SDS011;11947;50.810;4.394;2023-03-03T13:16:31;36.90;;;17.17;;
23539;SDS011;11947;50.810;4.394;2023-03-03T13:19:08;33.42;;;16.23;;
23539;SDS011;11947;50.810;4.394;2023-03-03T13:24:21;33.10;;;18.10;;
23539;SDS011;11947;50.810;4.394;2023-03-03T13:26:57;31.27;;;17.15;;
23539;SDS011;11947;50.810;4.394;2023-03-03T13:29:35;34.38;;;18.15;;
23539;SDS011;11947;50.810;4.394;2023-03-03T13:32:16;30.73;;;17.58;;
23539;SDS011;11947;50.810;4.394;2023-03-03T13:35:31;29.98;;;17.02;;
23539;SDS011;11947;50.810;4.394;2023-03-03T13:37:52;28.05;;;17.45;;
23539;SDS011;11947;50.810;4.394;2023-03-03T13:42:49;33.20;;;18.13;;
23539;SDS011;11947;50.810;4.394;2023-03-03T13:48:23;29.20;;;16.98;;
23539;SDS011;11947;50.810;4.394;2023-03-03T14:06:18;29.88;;;16.80;;
23539;SDS011;11947;50.810;4.394;2023-03-03T14:08:40;31.75;;;16.67;;
23539;SDS011;11947;50.810;4.394;2023-03-03T14:11:28;33.42;;;18.60;;
23539;SDS011;11947;50.810;4.394;2023-03-03T14:20:26;30.27;;;16.10;;
23539;SDS011;11947;50.810;4.394;2023-03-03T14:22:56;29.93;;;16.57;;
23539;SDS011;11947;50.810;4.394;2023-03-03T14:25:25;31.33;;;16.60;;
23539;SDS011;11947;50.810;4.394;2023-03-03T14:28:02;32.22;;;16.88;;
23539;SDS011;11947;50.810;4.394;2023-03-03T14:30:42;32.28;;;16.25;;
23539;SDS011;11947;50.810;4.394;2023-03-03T14:35:43;30.75;;;16.65;;
23539;SDS011;11947;50.810;4.394;2023-03-03T14:38:20;36.00;;;15.70;;
23539;SDS011;11947;50.810;4.394;2023-03-03T14:40:49;27.85;;;14.43;;
23539;SDS011;11947;50.810;4.394;2023-03-03T14:49:34;29.13;;;14.50;;
23539;SDS011;11947;50.810;4.394;2023-03-03T14:51:53;30.25;;;15.07;;
23539;SDS011;11947;50.810;4.394;2023-03-03T14:54:29;32.47;;;15.90;;
23539;SDS011;11947;50.810;4.394;2023-03-03T14:57:06;28.48;;;14.68;;
23539;SDS011;11947;50.810;4.394;2023-03-03T14:59:54;29.08;;;14.18;;
23539;SDS011;11947;50.810;4.394;2023-03-03T15:02:30;28.00;;;13.80;;
23539;SDS011;11947;50.810;4.394;2023-03-03T15:07:44;30.15;;;12.95;;
23539;SDS011;11947;50.810;4.394;2023-03-03T15:10:11;25.35;;;12.32;;
23539;SDS011;11947;50.810;4.394;2023-03-03T15:12:51;26.38;;;13.32;;
23539;SDS011;11947;50.810;4.394;2023-03-03T15:15:18;26.38;;;13.15;;
23539;SDS011;11947;50.810;4.394;2023-03-03T15:25:58;25.77;;;11.90;;
23539;SDS011;11947;50.810;4.394;2023-03-03T15:31:37;26.35;;;12.35;;
23539;SDS011;11947;50.810;4.394;2023-03-03T15:56:29;25.02;;;11.52;;
23539;SDS011;11947;50.810;4.394;2023-03-03T16:02:22;23.13;;;10.48;;
23539;SDS011;11947;50.810;4.394;2023-03-03T16:04:59;26.00;;;11.85;;
23539;SDS011;11947;50.810;4.394;2023-03-03T16:07:38;22.83;;;11.02;;
23539;SDS011;11947;50.810;4.394;2023-03-03T16:10:35;25.17;;;11.10;;
23539;SDS011;11947;50.810;4.394;2023-03-03T16:24:28;21.55;;;10.10;;
23539;SDS011;11947;50.810;4.394;2023-03-03T16:33:08;18.98;;;9.73;;
23539;SDS011;11947;50.810;4.394;2023-03-03T16:35:43;21.17;;;10.00;;
23539;SDS011;11947;50.810;4.394;2023-03-03T16:38:52;23.85;;;10.75;;
23539;SDS011;11947;50.810;4.394;2023-03-03T16:42:07;20.92;;;9.60;;
23539;SDS011;11947;50.810;4.394;2023-03-03T16:47:38;19.08;;;9.95;;
23539;SDS011;11947;50.810;4.394;2023-03-03T17:07:12;23.10;;;11.25;;
23539;SDS011;11947;50.810;4.394;2023-03-03T17:10:11;26.52;;;10.52;;
23539;SDS011;11947;50.810;4.394;2023-03-03T17:12:53;20.20;;;10.40;;
23539;SDS011;11947;50.810;4.394;2023-03-03T17:15:37;19.77;;;9.90;;
23539;SDS011;11947;50.810;4.394;2023-03-03T17:18:29;24.55;;;10.02;;
23539;SDS011;11947;50.810;4.394;2023-03-03T17:26:33;23.27;;;10.77;;
23539;SDS011;11947;50.810;4.394;2023-03-03T17:31:54;21.73;;;10.90;;
23539;SDS011;11947;50.810;4.394;2023-03-03T17:39:47;31.10;;;13.50;;
23539;SDS011;11947;50.810;4.394;2023-03-03T17:42:24;24.25;;;11.45;;
23539;SDS011;11947;50.810;4.394;2023-03-03T17:45:20;23.60;;;11.73;;
23539;SDS011;11947;50.810;4.394;2023-03-03T17:48:05;21.50;;;11.45;;
23539;SDS011;11947;50.810;4.394;2023-03-03T17:56:27;26.00;;;12.68;;
23539;SDS011;11947;50.810;4.394;2023-03-03T18:10:55;29.35;;;11.70;;
23539;SDS011;11947;50.810;4.394;2023-03-03T18:13:36;25.73;;;11.48;;
23539;SDS011;11947;50.810;4.394;2023-03-03T18:19:32;24.83;;;12.43;;
23539;SDS011;11947;50.810;4.394;2023-03-03T18:22:30;30.17;;;13.98;;
23539;SDS011;11947;50.810;4.394;2023-03-03T18:25:03;26.92;;;13.15;;
23539;SDS011;11947;50.810;4.394;2023-03-03T18:27:36;25.98;;;11.60;;
23539;SDS011;11947;50.810;4.394;2023-03-03T18:40:52;24.38;;;11.27;;
23539;SDS011;11947;50.810;4.394;2023-03-03T18:48:54;23.25;;;10.50;;
23539;SDS011;11947;50.810;4.394;2023-03-03T18:56:46;25.20;;;12.35;;
23539;SDS011;11947;50.810;4.394;2023-03-03T19:04:38;27.05;;;13.60;;
23539;SDS011;11947;50.810;4.394;2023-03-03T19:09:47;22.92;;;10.82;;
23539;SDS011;11947;50.810;4.394;2023-03-03T19:12:40;23.05;;;11.90;;
23539;SDS011;11947;50.810;4.394;2023-03-03T19:20:37;26.65;;;12.68;;
23539;SDS011;11947;50.810;4.394;2023-03-03T19:26:25;32.63;;;15.55;;
23539;SDS011;11947;50.810;4.394;2023-03-03T19:48:47;25.85;;;12.15;;
23539;SDS011;11947;50.810;4.394;2023-03-03T19:51:46;24.92;;;12.00;;
23539;SDS011;11947;50.810;4.394;2023-03-03T19:54:46;18.30;;;8.70;;
23539;SDS011;11947;50.810;4.394;2023-03-03T20:00:27;18.15;;;8.88;;
23539;SDS011;11947;50.810;4.394;2023-03-03T20:06:10;21.15;;;8.20;;
23539;SDS011;11947;50.810;4.394;2023-03-03T20:08:40;17.30;;;8.50;;
23539;SDS011;11947;50.810;4.394;2023-03-03T20:16:45;16.63;;;8.32;;
23539;SDS011;11947;50.810;4.394;2023-03-03T20:24:51;15.93;;;8.90;;
23539;SDS011;11947;50.810;4.394;2023-03-03T20:35:42;17.15;;;10.38;;
23539;SDS011;11947;50.810;4.394;2023-03-03T20:38:41;19.35;;;10.55;;
23539;SDS011;11947;50.810;4.394;2023-03-03T20:44:21;21.65;;;10.85;;
23539;SDS011;11947;50.810;4.394;2023-03-03T20:55:28;24.00;;;13.35;;
23539;SDS011;11947;50.810;4.394;2023-03-03T21:01:21;25.00;;;14.77;;
23539;SDS011;11947;50.810;4.394;2023-03-03T21:03:51;22.27;;;14.35;;
23539;SDS011;11947;50.810;4.394;2023-03-03T21:06:17;28.00;;;14.43;;
23539;SDS011;11947;50.810;4.394;2023-03-03T21:08:46;27.30;;;14.73;;
23539;SDS011;11947;50.810;4.394;2023-03-03T21:11:23;29.23;;;15.32;;
23539;SDS011;11947;50.810;4.394;2023-03-03T21:14:42;30.95;;;15.70;;
23539;SDS011;11947;50.810;4.394;2023-03-03T21:17:10;27.42;;;16.73;;
23539;SDS011;11947;50.810;4.394;2023-03-03T21:19:51;29.20;;;16.50;;
23539;SDS011;11947;50.810;4.394;2023-03-03T21:22:16;33.65;;;17.00;;